Time;durP1;ratioP1;P1;durP2;ratioP2;P2;SDS_P1;SDS_P2;PMS_P1;PMS_P2;Temp;Humidity;BMP_temperature;BMP_pressure;BME280_temperature;BME280_humidity;BME280_pressure;Samples;Min_cycle;Max_cycle;Signal;HPM_P1;HPM_P2
2022/08/20 00:01:55;;;;;;;12.70;7.72;;;;;;;25.58;56.48;100721.92;1713200;83;21452;-87
2022/08/20 00:04:23;;;;;;;7.95;7.05;;;;;;;25.51;56.57;100732.08;1714945;83;21002;-87
2022/08/20 00:06:50;;;;;;;10.65;7.28;;;;;;;25.50;56.67;100733.48;1714458;83;20994;-87
2022/08/20 00:09:17;;;;;;;9.63;7.80;;;;;;;25.46;56.76;100732.71;1697225;84;21752;-87
2022/08/20 00:11:43;;;;;;;21.00;7.97;;;;;;;25.43;56.89;100733.29;1725246;83;21011;-87
2022/08/20 00:14:10;;;;;;;7.80;6.90;;;;;;;25.39;56.99;100734.73;1716541;83;20997;-88
2022/08/20 00:16:37;;;;;;;9.73;7.25;;;;;;;25.39;57.14;100736.09;1717147;83;21419;-88
2022/08/20 00:19:06;;;;;;;12.15;8.15;;;;;;;25.38;57.22;100742.42;1716389;83;21033;-88
2022/08/20 00:21:33;;;;;;;16.40;7.83;;;;;;;25.40;57.33;100742.37;1718699;83;21725;-88
2022/08/20 00:24:00;;;;;;;7.53;6.80;;;;;;;25.40;57.44;100747.29;1720071;83;21381;-88
2022/08/20 00:26:26;;;;;;;11.28;7.50;;;;;;;25.41;57.52;100749.06;1725991;83;21559;-87
2022/08/20 00:28:55;;;;;;;12.35;8.38;;;;;;;25.45;57.56;100747.58;1709587;83;21460;-87
2022/08/20 00:31:22;;;;;;;14.25;8.08;;;;;;;25.47;57.61;100740.32;1724749;83;20991;-88
2022/08/20 00:33:49;;;;;;;9.38;7.55;;;;;;;25.49;57.62;100723.62;1722010;81;21733;-87
2022/08/20 00:36:16;;;;;;;14.13;7.75;;;;;;;25.50;57.65;100725.39;1720107;82;21543;-88
2022/08/20 00:38:44;;;;;;;8.85;7.22;;;;;;;25.51;57.70;100717.70;1727651;83;21590;-88
2022/08/20 00:41:15;;;;;;;14.55;8.63;;;;;;;25.50;57.65;100717.31;1717076;82;21130;-87
2022/08/20 00:44:04;;;;;;;11.10;7.60;;;;;;;25.47;57.71;100713.37;1717015;83;21029;-87
2022/08/20 00:46:32;;;;;;;10.43;7.55;;;;;;;25.44;57.73;100722.46;1714276;83;21667;-88
2022/08/20 00:48:59;;;;;;;12.75;7.78;;;;;;;25.38;57.84;100722.22;1700256;83;21547;-88
2022/08/20 00:51:42;;;;;;;9.43;7.40;;;;;;;25.35;57.94;100724.14;1714642;83;20991;-88
2022/08/20 00:54:30;;;;;;;10.88;7.87;;;;;;;25.31;57.97;100731.94;1693619;84;21022;-88
2022/08/20 00:57:04;;;;;;;12.88;8.73;;;;;;;25.24;58.06;100732.61;1701060;84;21057;-88
2022/08/20 00:59:33;;;;;;;13.58;7.83;;;;;;;25.17;58.27;100735.98;1699398;83;22952;-87
2022/08/20 01:02:00;;;;;;;16.42;9.00;;;;;;;25.12;58.42;100729.00;1701428;83;20953;-88
2022/08/20 01:04:32;;;;;;;9.90;8.43;;;;;;;25.09;58.59;100722.36;1676406;84;20975;-88
2022/08/20 01:07:00;;;;;;;15.70;8.53;;;;;;;25.07;58.82;100716.16;1696045;82;20995;-88
2022/08/20 01:09:27;;;;;;;12.65;9.18;;;;;;;25.08;58.96;100715.23;1698409;84;21007;-88
2022/08/20 01:11:53;;;;;;;11.43;7.87;;;;;;;25.09;59.13;100715.63;1701200;84;21754;-88
2022/08/20 01:16:49;;;;;;;13.38;10.18;;;;;;;25.11;59.38;100715.98;1686859;84;21514;-88
2022/08/20 01:19:17;;;;;;;23.20;10.90;;;;;;;25.12;59.46;100721.79;1676025;84;21147;-88
2022/08/20 01:21:43;;;;;;;11.97;10.08;;;;;;;25.13;59.55;100711.88;1703817;84;21085;-88
2022/08/20 01:24:36;;;;;;;18.45;12.05;;;;;;;25.14;59.64;100711.84;1634884;87;21903;-88
2022/08/20 01:27:04;;;;;;;15.50;10.20;;;;;;;25.13;59.75;100709.19;1681798;84;21007;-88
2022/08/20 01:29:37;;;;;;;15.78;10.15;;;;;;;25.13;59.86;100707.84;1692035;83;21663;-88
2022/08/20 01:32:04;;;;;;;;;;;;;;;25.12;59.91;100709.67;1675154;84;21206;-88
2022/08/20 01:34:31;;;;;;;14.30;11.88;;;;;;;25.12;60.15;100713.70;1687935;84;20248;-88
2022/08/20 01:36:57;;;;;;;12.85;11.63;;;;;;;25.11;60.17;100705.67;1695260;83;22614;-88
2022/08/20 01:39:33;;;;;;;14.38;11.80;;;;;;;25.10;60.20;100709.33;1701010;83;20992;-88
2022/08/20 01:42:25;;;;;;;16.93;12.18;;;;;;;25.09;60.32;100705.73;1706350;83;21528;-88
2022/08/20 01:44:52;;;;;;;14.58;13.10;;;;;;;25.10;60.41;100710.20;1690823;84;21004;-88
2022/08/20 01:47:26;;;;;;;17.92;14.13;;;;;;;25.10;60.48;100710.20;1689540;84;21022;-87
2022/08/20 01:49:58;;;;;;;18.52;14.98;;;;;;;25.11;60.56;100712.41;1700926;84;21300;-88
2022/08/20 01:52:54;;;;;;;19.90;15.78;;;;;;;25.11;60.61;100711.94;1692798;84;21032;-87
2022/08/20 01:55:22;;;;;;;16.35;14.70;;;;;;;25.11;60.69;100715.11;1665742;85;21056;-87
2022/08/20 01:57:48;;;;;;;23.90;16.75;;;;;;;25.08;60.76;100712.55;1687460;85;20995;-87
2022/08/20 02:00:18;;;;;;;17.82;15.93;;;;;;;25.07;60.86;100717.50;1668825;84;21040;-88
2022/08/20 02:02:44;;;;;;;24.90;16.80;;;;;;;25.04;61.00;100718.50;1688125;83;22581;-87
2022/08/20 02:05:11;;;;;;;18.60;16.67;;;;;;;25.01;61.08;100720.81;1687570;85;21051;-87
2022/08/20 02:07:38;;;;;;;23.45;16.20;;;;;;;24.99;61.19;100724.03;1679775;85;21887;-88
2022/08/20 02:10:07;;;;;;;19.87;17.00;;;;;;;24.97;61.29;100727.73;1686087;85;21054;-88
2022/08/20 02:12:34;;;;;;;18.75;14.90;;;;;;;24.93;61.43;100730.98;1666246;85;21541;-88
2022/08/20 02:15:00;;;;;;;18.73;16.35;;;;;;;24.92;61.53;100722.96;1688014;83;21792;-87
2022/08/20 02:17:27;;;;;;;19.07;16.20;;;;;;;24.91;61.62;100716.70;1675168;84;20994;-88
2022/08/20 02:19:59;;;;;;;19.57;16.75;;;;;;;24.92;61.68;100709.50;1682945;85;21023;-86
2022/08/20 02:22:43;;;;;;;25.08;17.27;;;;;;;24.91;61.75;100712.67;1668311;84;22006;-87
2022/08/20 02:25:10;;;;;;;20.12;16.62;;;;;;;24.89;61.75;100719.92;1679627;83;21484;-87
2022/08/20 02:27:38;;;;;;;20.65;18.45;;;;;;;24.87;61.84;100720.45;1688051;85;21905;-87
2022/08/20 02:30:10;;;;;;;26.33;16.20;;;;;;;24.86;61.94;100725.41;1684322;85;21006;-87
2022/08/20 02:32:37;;;;;;;17.75;15.95;;;;;;;24.81;62.01;100725.58;1687133;85;20956;-87
2022/08/20 02:35:07;;;;;;;18.40;16.32;;;;;;;24.76;62.11;100715.42;1687558;83;21520;-87
2022/08/20 02:37:35;;;;;;;18.80;16.15;;;;;;;24.75;62.23;100720.86;1682347;85;21074;-87
2022/08/20 02:40:04;;;;;;;19.20;15.55;;;;;;;24.73;62.30;100722.72;1687174;85;22557;-87
2022/08/20 02:42:31;;;;;;;19.02;15.63;;;;;;;24.72;62.38;100720.95;1683225;85;21500;-87
2022/08/20 02:44:57;;;;;;;21.17;15.72;;;;;;;24.71;62.47;100735.36;1659201;85;21038;-87
2022/08/20 02:47:26;;;;;;;20.97;15.08;;;;;;;24.68;62.56;100726.90;1660189;85;21083;-87
2022/08/20 02:49:54;;;;;;;17.05;15.38;;;;;;;24.68;62.60;100734.97;1677538;85;21059;-87
2022/08/20 02:52:21;;;;;;;18.62;14.18;;;;;;;24.68;62.69;100747.56;1674384;84;21906;-87
2022/08/20 02:54:49;;;;;;;25.95;16.12;;;;;;;24.67;62.69;100753.89;1699301;83;20979;-87
2022/08/20 02:57:19;;;;;;;20.17;15.98;;;;;;;24.65;62.73;100763.36;1698004;83;21058;-86
2022/08/20 02:59:46;;;;;;;18.37;16.15;;;;;;;24.62;62.82;100761.63;1697930;83;21015;-87
2022/08/20 03:02:14;;;;;;;18.60;15.38;;;;;;;24.59;62.98;100768.95;1685150;84;21436;-86
2022/08/20 03:04:41;;;;;;;17.05;13.00;;;;;;;24.56;63.05;100767.22;1689111;82;22590;-86
2022/08/20 03:07:09;;;;;;;14.03;12.40;;;;;;;24.53;63.16;100772.72;1664481;84;21015;-86
2022/08/20 03:09:36;;;;;;;18.10;13.50;;;;;;;24.48;63.22;100771.95;1679678;84;20987;-86
2022/08/20 03:12:03;;;;;;;19.90;13.15;;;;;;;24.47;63.37;100772.87;1687216;84;21188;-86
2022/08/20 03:14:33;;;;;;;15.38;12.07;;;;;;;24.45;63.46;100770.70;1686598;84;20984;-86
2022/08/20 03:16:59;;;;;;;16.32;12.37;;;;;;;24.45;63.58;100762.63;1696245;84;21789;-86
2022/08/20 03:19:29;;;;;;;15.20;12.58;;;;;;;24.44;63.66;100760.88;1685042;84;20976;-86
2022/08/20 03:21:56;;;;;;;13.83;12.33;;;;;;;24.42;63.75;100770.34;1700053;84;21001;-86
2022/08/20 03:24:22;;;;;;;14.70;12.47;;;;;;;24.40;63.81;100768.17;1639923;85;21041;-86
2022/08/20 03:26:49;;;;;;;14.00;11.80;;;;;;;24.40;63.89;100772.20;1642334;86;21083;-87
2022/08/20 03:29:16;;;;;;;16.60;12.05;;;;;;;24.41;63.94;100774.42;1651698;86;21771;-88
2022/08/20 03:31:42;;;;;;;14.93;12.68;;;;;;;24.41;64.04;100775.77;1655732;85;21034;-87
2022/08/20 03:34:12;;;;;;;13.83;11.03;;;;;;;24.41;64.16;100782.49;1668175;84;21022;-87
2022/08/20 03:36:38;;;;;;;19.40;12.75;;;;;;;24.41;64.18;100799.98;1702558;84;20979;-87
2022/08/20 03:39:06;;;;;;;17.67;12.90;;;;;;;24.41;64.19;100798.64;1694140;84;21074;-87
2022/08/20 03:41:33;;;;;;;23.40;12.18;;;;;;;24.38;64.29;100790.20;1690691;84;21712;-87
2022/08/20 03:44:00;;;;;;;19.07;13.70;;;;;;;24.37;64.38;100801.88;1693894;84;20968;-87
2022/08/20 03:46:27;;;;;;;16.70;12.40;;;;;;;24.35;64.46;100804.22;1697659;82;21126;-87
2022/08/20 03:48:54;;;;;;;14.83;12.00;;;;;;;24.33;64.52;100802.05;1691304;84;21515;-87
2022/08/20 03:51:21;;;;;;;12.85;11.15;;;;;;;24.30;64.60;100805.69;1686610;84;21054;-87
2022/08/20 03:53:48;;;;;;;20.23;11.25;;;;;;;24.27;64.71;100805.80;1691894;83;22940;-87
2022/08/20 03:56:16;;;;;;;14.30;10.35;;;;;;;24.25;64.84;100800.91;1691449;83;21501;-87
2022/08/20 03:58:43;;;;;;;17.07;10.10;;;;;;;24.25;64.97;100807.63;1686699;84;21504;-87
2022/08/20 04:01:10;;;;;;;13.13;10.00;;;;;;;24.24;65.05;100809.92;1698396;83;21509;-87
2022/08/20 04:03:36;;;;;;;16.65;10.82;;;;;;;24.24;65.18;100810.80;1701103;83;21536;-87
2022/08/20 04:06:03;;;;;;;19.90;10.58;;;;;;;24.25;65.32;100808.53;1674111;84;21809;-87
2022/08/20 04:08:30;;;;;;;15.98;9.95;;;;;;;24.26;65.33;100816.13;1688925;84;21019;-88
2022/08/20 04:10:58;;;;;;;13.85;9.55;;;;;;;24.28;65.47;100816.96;1695135;84;21027;-88
2022/08/20 04:13:25;;;;;;;17.42;10.78;;;;;;;24.29;65.54;100819.18;1682851;84;20976;-88
2022/08/20 04:15:54;;;;;;;15.93;10.55;;;;;;;24.30;65.60;100824.52;1697206;84;21922;-88
2022/08/20 04:18:22;;;;;;;15.32;10.60;;;;;;;24.31;65.67;100819.57;1685308;84;21589;-88
2022/08/20 04:20:50;;;;;;;13.38;10.28;;;;;;;24.34;65.77;100830.69;1693839;84;20977;-88
2022/08/20 04:23:17;;;;;;;14.65;10.20;;;;;;;24.37;65.85;100835.98;1690968;84;21019;-88
2022/08/20 04:25:44;;;;;;;13.58;9.75;;;;;;;24.39;65.88;100828.74;1696236;84;21043;-87
2022/08/20 04:28:20;;;;;;;12.05;10.58;;;;;;;24.40;65.92;100838.56;1702958;84;20997;-87
2022/08/20 04:30:44;;;;;;;12.45;9.63;;;;;;;24.38;65.94;100842.67;1665097;85;21824;-87
2022/08/20 04:33:11;;;;;;;14.13;10.28;;;;;;;24.38;66.06;100843.11;1689036;85;21027;-87
2022/08/20 04:35:38;;;;;;;23.90;12.15;;;;;;;24.36;66.35;100829.73;1696358;83;21003;-88
2022/08/20 04:38:07;;;;;;;22.98;12.68;;;;;;;24.33;66.83;100821.74;1687711;84;21847;-88
2022/08/20 04:40:52;;;;;;;20.27;13.32;;;;;;;24.29;67.32;100823.22;1681660;84;21090;-87
2022/08/20 04:43:21;;;;;;;24.67;13.55;;;;;;;24.23;67.64;100821.16;1629878;86;22601;-89
2022/08/20 04:45:51;;;;;;;20.05;13.08;;;;;;;24.18;68.05;100826.25;1690587;82;21039;-86
2022/08/20 04:48:18;;;;;;;19.73;13.95;;;;;;;24.17;68.48;100821.79;1698420;83;20987;-87
2022/08/20 04:50:48;;;;;;;23.92;13.85;;;;;;;24.14;68.79;100817.40;1695006;84;21042;-86
2022/08/20 04:53:17;;;;;;;22.27;14.13;;;;;;;24.12;69.00;100821.04;1684570;83;21008;-87
2022/08/20 04:55:44;;;;;;;17.77;14.25;;;;;;;24.12;69.38;100816.56;1701618;83;21761;-87
2022/08/20 04:58:16;;;;;;;22.35;14.87;;;;;;;24.16;69.54;100816.88;1710070;83;21027;-86
2022/08/20 05:00:54;;;;;;;19.73;15.78;;;;;;;24.23;69.80;100817.56;1691912;82;21579;-88
2022/08/20 05:03:31;;;;;;;20.25;16.15;;;;;;;24.32;69.91;100824.48;1691387;83;21259;-88
2022/08/20 05:05:58;;;;;;;19.25;17.15;;;;;;;24.39;70.15;100820.20;1693506;82;20995;-86
2022/08/20 05:08:32;;;;;;;23.05;18.40;;;;;;;24.43;70.06;100822.33;1697735;83;22473;-88
2022/08/20 05:11:01;;;;;;;26.77;20.02;;;;;;;24.46;70.16;100824.94;1652629;84;21042;-89
2022/08/20 05:13:28;;;;;;;22.65;20.32;;;;;;;24.50;70.29;100826.59;1700278;83;21579;-86
2022/08/20 05:15:55;;;;;;;24.92;20.15;;;;;;;24.53;70.21;100829.67;1669198;86;21501;-86
2022/08/20 05:18:24;;;;;;;24.95;22.22;;;;;;;24.56;70.43;100827.77;1676747;83;21081;-86
2022/08/20 05:20:51;;;;;;;25.30;21.85;;;;;;;24.64;70.62;100810.93;1656453;83;21743;-86
2022/08/20 05:23:19;;;;;;;25.30;22.13;;;;;;;24.73;70.60;100808.86;1707520;82;21004;-87
2022/08/20 05:25:50;;;;;;;25.90;23.47;;;;;;;24.78;70.45;100814.98;1703760;83;20988;-87
2022/08/20 05:28:20;;;;;;;24.35;21.85;;;;;;;24.76;70.42;100810.12;1714878;83;21170;-87
2022/08/20 05:30:47;;;;;;;24.10;21.40;;;;;;;24.79;70.66;100813.55;1683905;83;20958;-87
2022/08/20 05:33:16;;;;;;;23.42;21.07;;;;;;;24.87;70.67;100816.02;1704674;83;21775;-87
2022/08/20 05:35:43;;;;;;;24.47;21.82;;;;;;;24.88;70.59;100817.77;1677118;84;21563;-87
2022/08/20 05:38:15;;;;;;;23.92;20.68;;;;;;;24.98;70.78;100817.89;1706016;82;20971;-87
2022/08/20 05:40:42;;;;;;;24.20;21.02;;;;;;;25.05;70.69;100806.42;1681860;85;21561;-87
2022/08/20 05:43:10;;;;;;;23.42;20.92;;;;;;;25.14;70.75;100802.55;1719402;82;20990;-87
2022/08/20 05:45:38;;;;;;;24.35;21.77;;;;;;;25.23;70.62;100806.30;1710386;83;21724;-86
2022/08/20 05:48:07;;;;;;;24.67;22.15;;;;;;;25.28;70.49;100813.73;1706998;82;21029;-87
2022/08/20 05:50:36;;;;;;;25.90;20.62;;;;;;;25.34;70.50;100820.27;1712488;83;21052;-86
2022/08/20 05:53:03;;;;;;;23.22;20.48;;;;;;;25.45;70.62;100829.30;1697364;83;21098;-87
2022/08/20 05:55:31;;;;;;;22.90;20.25;;;;;;;25.56;70.62;100821.70;1714631;83;21023;-87
2022/08/20 05:58:00;;;;;;;24.02;21.07;;;;;;;25.63;70.49;100812.94;1698006;83;22555;-87
2022/08/20 06:00:28;;;;;;;25.90;21.17;;;;;;;25.68;70.28;100811.45;1713061;83;20978;-87
2022/08/20 06:05:43;;;;;;;20.88;18.75;;;;;;;25.79;70.15;100815.49;1698153;83;20995;-87
2022/08/20 06:08:10;;;;;;;22.82;20.27;;;;;;;25.94;70.18;100817.21;1701892;81;21019;-87
2022/08/20 06:10:51;;;;;;;21.73;18.10;;;;;;;26.10;70.05;100813.00;1659898;85;22540;-87
2022/08/20 06:13:18;;;;;;;21.90;17.82;;;;;;;26.27;69.86;100802.89;1700500;84;20996;-87
2022/08/20 06:15:45;;;;;;;21.33;17.35;;;;;;;26.45;69.71;100801.30;1691175;84;21039;-87
2022/08/20 06:18:12;;;;;;;20.00;17.90;;;;;;;26.65;69.33;100803.67;1674473;83;20970;-87
2022/08/20 06:20:39;;;;;;;18.87;16.62;;;;;;;26.81;68.90;100806.16;1650931;85;21032;-87
2022/08/20 06:23:11;;;;;;;19.75;17.75;;;;;;;26.99;68.85;100807.66;1658243;85;22942;-89
2022/08/20 06:25:44;;;;;;;19.70;17.60;;;;;;;27.17;68.67;100804.66;1725563;82;20960;-87
2022/08/20 06:28:16;;;;;;;;;;;;;;;27.32;68.07;100806.72;1697482;83;21036;-86
2022/08/20 06:30:41;;;;;;;18.75;16.65;;;;;;;27.32;67.28;100809.42;1680150;83;20480;-87
2022/08/20 06:33:08;;;;;;;20.82;15.83;;;;;;;27.28;67.27;100810.51;1693115;84;20988;-87
2022/08/20 06:35:36;;;;;;;17.98;15.30;;;;;;;27.31;67.22;100813.95;1695397;83;21176;-87
2022/08/20 06:38:04;;;;;;;17.23;15.58;;;;;;;27.34;66.91;100813.80;1690345;83;21031;-87
2022/08/20 06:40:32;;;;;;;20.65;15.10;;;;;;;27.32;66.79;100814.83;1702735;83;21019;-86
2022/08/20 06:42:59;;;;;;;17.32;13.85;;;;;;;27.33;66.83;100816.12;1690707;83;21011;-87
2022/08/20 06:45:31;;;;;;;17.80;13.98;;;;;;;27.29;66.45;100809.55;1689591;84;20996;-86
2022/08/20 06:48:00;;;;;;;20.80;13.22;;;;;;;27.20;66.27;100818.02;1675021;84;21070;-87
2022/08/20 06:50:38;;;;;;;18.37;12.58;;;;;;;27.12;66.33;100819.25;1671482;84;21004;-86
2022/08/20 06:53:06;;;;;;;16.85;11.55;;;;;;;27.15;66.49;100819.58;1665758;84;21031;-88
2022/08/20 06:55:32;;;;;;;18.87;12.40;;;;;;;27.19;66.29;100826.61;1689631;84;21051;-88
2022/08/20 06:58:04;;;;;;;15.55;11.25;;;;;;;27.12;66.22;100830.06;1699934;84;20976;-87
2022/08/20 07:00:34;;;;;;;15.25;11.22;;;;;;;27.08;66.17;100834.29;1703631;83;21745;-88
2022/08/20 07:03:02;;;;;;;16.15;11.70;;;;;;;27.01;66.03;100831.44;1692288;83;21034;-86
2022/08/20 07:05:32;;;;;;;16.37;11.73;;;;;;;26.94;66.03;100841.64;1687445;84;20988;-86
2022/08/20 07:08:01;;;;;;;18.17;11.60;;;;;;;26.88;66.01;100842.77;1692548;84;21048;-87
2022/08/20 07:10:29;;;;;;;19.40;11.70;;;;;;;26.88;66.13;100845.92;1697464;83;21477;-88
2022/08/20 07:12:59;;;;;;;21.15;11.08;;;;;;;26.88;66.14;100845.92;1703178;84;22582;-88
2022/08/20 07:15:26;;;;;;;18.75;10.90;;;;;;;26.88;66.20;100844.13;1680323;83;21488;-88
2022/08/20 07:17:55;;;;;;;13.32;10.63;;;;;;;26.87;66.09;100853.64;1683986;84;21051;-86
2022/08/20 07:20:24;;;;;;;18.35;11.20;;;;;;;26.83;66.02;100851.53;1674868;84;21074;-89
2022/08/20 07:22:52;;;;;;;17.55;11.05;;;;;;;26.75;65.88;100850.50;1674913;84;21015;-89
2022/08/20 07:25:21;;;;;;;13.83;9.90;;;;;;;26.70;66.07;100847.58;1676591;84;21738;-87
2022/08/20 07:27:47;;;;;;;14.60;9.05;;;;;;;26.62;66.01;100855.12;1699392;84;21031;-86
2022/08/20 07:33:03;;;;;;;17.75;8.48;;;;;;;26.55;65.91;100849.91;1687854;84;21008;-86
2022/08/20 07:35:31;;;;;;;13.00;8.55;;;;;;;26.53;65.81;100850.45;1700699;84;20984;-88
2022/08/20 07:37:59;;;;;;;14.35;7.92;;;;;;;26.53;65.72;100850.92;1678322;84;21763;-87
2022/08/20 07:43:35;;;;;;;14.25;8.00;;;;;;;26.67;65.68;100853.09;1670990;84;21949;-87
2022/08/20 07:46:07;;;;;;;14.83;8.98;;;;;;;26.73;65.32;100855.56;1654142;86;21027;-88
2022/08/20 07:48:31;;;;;;;15.28;8.85;;;;;;;26.77;65.12;100861.24;1632411;85;21127;-88
2022/08/20 07:50:59;;;;;;;15.03;7.75;;;;;;;26.84;65.05;100861.85;1658515;85;21742;-88
2022/08/20 07:53:26;;;;;;;14.15;8.73;;;;;;;26.90;65.04;100867.03;1642926;85;21458;-87
2022/08/20 07:55:53;;;;;;;10.98;8.33;;;;;;;27.03;65.14;100867.37;1658498;86;21026;-88
2022/08/20 07:58:23;;;;;;;11.03;8.58;;;;;;;27.25;65.01;100873.66;1687773;84;21629;-88
2022/08/20 08:00:52;;;;;;;13.13;8.08;;;;;;;27.47;64.77;100872.27;1666014;83;21002;-88
2022/08/20 08:03:30;;;;;;;10.70;7.35;;;;;;;27.79;64.69;100870.45;1641798;86;21708;-88
2022/08/20 08:05:57;;;;;;;11.95;8.25;;;;;;;28.11;64.48;100864.46;1641031;86;21014;-89
2022/08/20 08:08:27;;;;;;;10.53;8.15;;;;;;;28.44;63.82;100877.86;1649180;84;42420;-88
2022/08/20 08:10:57;;;;;;;15.15;7.70;;;;;;;28.61;63.32;100882.02;1668846;84;21044;-87
2022/08/20 08:13:27;;;;;;;15.15;9.48;;;;;;;28.74;62.64;100887.72;1653034;86;21041;-87
2022/08/20 08:16:00;;;;;;;13.85;9.03;;;;;;;28.84;62.52;100888.14;1606423;87;21764;-87
2022/08/20 08:18:32;;;;;;;13.78;8.55;;;;;;;29.05;62.26;100890.25;1670052;84;20967;-88
2022/08/20 08:21:02;;;;;;;12.75;8.53;;;;;;;29.27;61.83;100886.89;1662277;84;20972;-89
2022/08/20 08:23:31;;;;;;;16.70;9.03;;;;;;;29.46;61.51;100890.02;1672375;84;21583;-88
2022/08/20 08:25:58;;;;;;;10.85;8.25;;;;;;;29.58;60.88;100895.27;1671426;84;21392;-88
2022/08/20 08:28:27;;;;;;;13.70;9.18;;;;;;;29.64;60.54;100890.41;1675969;84;22574;-88
2022/08/20 08:30:53;;;;;;;14.43;9.40;;;;;;;29.75;60.27;100895.77;1662933;84;21025;-89
2022/08/20 08:33:26;;;;;;;10.80;9.25;;;;;;;29.81;59.82;100894.11;1656795;84;21605;-87
2022/08/20 08:35:57;;;;;;;12.98;8.90;;;;;;;29.83;59.58;100890.84;1667532;84;21136;-86
2022/08/20 08:38:24;;;;;;;10.75;7.92;;;;;;;29.83;59.22;100886.77;1664530;84;21621;-89
2022/08/20 08:40:53;;;;;;;14.75;9.78;;;;;;;29.89;59.20;100889.14;1658953;86;21728;-86
2022/08/20 08:43:23;;;;;;;12.37;8.93;;;;;;;30.06;59.05;100890.08;1647572;84;21017;-87
2022/08/20 08:46:04;;;;;;;11.53;8.60;;;;;;;30.13;58.50;100885.58;1657602;84;21057;-87
2022/08/20 08:48:43;;;;;;;14.87;9.60;;;;;;;30.24;58.33;100885.87;1660948;84;21596;-87
2022/08/20 08:51:11;;;;;;;13.50;8.48;;;;;;;30.37;57.96;100874.34;1658930;84;21008;-86
2022/08/20 08:53:52;;;;;;;11.45;8.78;;;;;;;30.47;57.80;100882.38;1676169;84;21731;-88
2022/08/20 08:56:21;;;;;;;12.82;8.38;;;;;;;30.57;57.72;100885.45;1621133;86;21523;-88
2022/08/20 08:58:48;;;;;;;15.30;7.67;;;;;;;30.73;57.42;100880.03;1629716;87;21046;-88
2022/08/20 09:01:19;;;;;;;10.32;7.75;;;;;;;30.83;57.13;100881.73;1622778;87;21001;-88
2022/08/20 09:03:48;;;;;;;10.90;8.50;;;;;;;30.93;56.56;100877.07;1622598;87;21085;-88
2022/08/20 09:06:19;;;;;;;10.20;8.20;;;;;;;30.92;56.13;100878.02;1623902;87;21863;-88
2022/08/20 09:08:59;;;;;;;14.35;8.20;;;;;;;30.99;56.13;100874.48;1620823;87;21516;-87
2022/08/20 09:11:26;;;;;;;14.35;8.58;;;;;;;31.13;55.84;100869.57;1614088;87;21034;-87
2022/08/20 09:13:53;;;;;;;11.75;8.65;;;;;;;31.30;55.60;100868.07;1655077;85;21514;-88
2022/08/20 09:16:21;;;;;;;10.53;7.78;;;;;;;31.50;55.36;100873.70;1658836;84;21064;-87
2022/08/20 09:18:51;;;;;;;19.87;8.18;;;;;;;31.67;55.03;100862.28;1651093;85;22642;-87
2022/08/20 09:21:18;;;;;;;14.18;8.08;;;;;;;31.78;54.63;100868.80;1651245;84;21653;-88
2022/08/20 09:23:45;;;;;;;9.00;7.08;;;;;;;31.88;54.27;100869.59;1646181;86;21071;-88
2022/08/20 09:26:15;;;;;;;10.78;7.45;;;;;;;31.97;54.16;100875.33;1645186;85;21045;-89
2022/08/20 09:28:42;;;;;;;9.18;6.83;;;;;;;32.04;53.78;100869.52;1635295;85;21539;-90
2022/08/20 09:31:10;;;;;;;10.10;7.05;;;;;;;32.10;53.44;100865.06;1641980;87;22574;-89
2022/08/20 09:33:37;;;;;;;10.55;6.83;;;;;;;32.16;53.22;100868.25;1673380;84;21532;-87
2022/08/20 09:36:08;;;;;;;12.53;7.17;;;;;;;32.24;52.95;100863.67;1681062;84;21083;-90
2022/08/20 09:38:39;;;;;;;10.03;7.78;;;;;;;32.14;52.33;100862.03;1684383;84;21050;-90
2022/08/20 09:41:06;;;;;;;9.98;7.00;;;;;;;32.03;52.37;100860.98;1680270;84;20975;-89
2022/08/20 09:43:33;;;;;;;12.68;7.58;;;;;;;32.04;52.43;100864.07;1677791;83;21747;-89
2022/08/20 09:45:59;;;;;;;11.40;7.67;;;;;;;32.07;52.27;100857.08;1681960;84;21000;-90
2022/08/20 09:48:28;;;;;;;10.70;7.45;;;;;;;32.09;51.96;100856.50;1678355;83;21501;-88
2022/08/20 09:50:57;;;;;;;11.68;7.47;;;;;;;32.03;51.86;100846.87;1690614;84;21536;-88
2022/08/20 09:53:23;;;;;;;23.42;14.58;;;;;;;32.02;51.70;100854.63;1687926;84;21039;-88
2022/08/20 09:55:54;;;;;;;12.95;10.70;;;;;;;31.92;51.48;100849.36;1705703;82;21756;-89
2022/08/20 09:58:35;;;;;;;13.25;10.23;;;;;;;31.85;51.61;100853.44;1717089;82;21027;-89
2022/08/20 10:01:13;;;;;;;13.80;7.97;;;;;;;31.82;51.67;100853.16;1655328;84;21585;-89
2022/08/20 10:03:41;;;;;;;14.35;12.50;;;;;;;31.75;51.61;100856.73;1650942;86;22298;-89
2022/08/20 10:06:09;;;;;;;14.63;9.93;;;;;;;31.75;51.60;100855.38;1645339;86;21047;-88
2022/08/20 10:08:37;;;;;;;10.32;8.35;;;;;;;31.77;51.47;100857.51;1652708;84;21720;-88
2022/08/20 10:11:04;;;;;;;10.25;7.87;;;;;;;31.67;51.26;100852.76;1660273;84;21047;-88
2022/08/20 10:13:31;;;;;;;13.53;9.25;;;;;;;31.63;51.42;100853.89;1662072;84;21002;-88
2022/08/20 10:15:57;;;;;;;9.35;8.03;;;;;;;31.60;51.35;100855.46;1661071;85;21399;-89
2022/08/20 10:18:26;;;;;;;11.10;8.85;;;;;;;31.63;51.51;100853.43;1659765;86;21028;-88
2022/08/20 10:20:54;;;;;;;12.88;9.10;;;;;;;31.75;51.58;100851.78;1654064;86;21751;-88
2022/08/20 10:23:21;;;;;;;12.98;9.68;;;;;;;31.90;51.54;100855.39;1647136;86;21003;-87
2022/08/20 10:25:48;;;;;;;14.43;10.45;;;;;;;32.03;51.53;100850.95;1659200;86;20999;-89
2022/08/20 10:28:14;;;;;;;13.15;9.53;;;;;;;32.12;51.06;100853.09;1665883;84;21135;-88
2022/08/20 10:30:43;;;;;;;15.30;10.08;;;;;;;32.08;50.99;100847.46;1669496;85;21015;-90
2022/08/20 10:35:57;;;;;;;15.65;9.65;;;;;;;31.87;50.63;100836.52;1627717;86;21003;-89
2022/08/20 10:38:25;;;;;;;13.68;10.75;;;;;;;31.76;50.92;100827.20;1644122;86;21111;-87
2022/08/20 10:41:08;;;;;;;;;;;;;;;;;;;;;
2022/08/20 10:43:27;;;;;;;16.23;10.58;;;;;;;31.77;50.88;100817.18;1656952;84;20996;-88
2022/08/20 10:45:55;;;;;;;16.97;10.35;;;;;;;31.74;50.74;100823.70;1663304;86;21829;-88
2022/08/20 10:48:22;;;;;;;11.90;9.95;;;;;;;31.65;50.81;100828.85;1641013;86;21007;-88
2022/08/20 10:50:49;;;;;;;17.77;11.40;;;;;;;31.57;51.09;100831.55;1656493;86;21024;-87
2022/08/20 10:53:16;;;;;;;12.98;10.63;;;;;;;31.54;51.11;100841.26;1631801;87;20992;-88
2022/08/20 10:55:43;;;;;;;17.37;11.57;;;;;;;31.46;51.11;100844.91;1657150;86;21031;-88
2022/08/20 10:58:11;;;;;;;19.15;10.18;;;;;;;31.42;51.13;100848.77;1659466;86;21821;-88
2022/08/20 11:00:42;;;;;;;15.30;10.48;;;;;;;31.35;51.29;100841.97;1646296;86;21000;-88
2022/08/20 11:03:08;;;;;;;14.45;11.68;;;;;;;31.36;51.51;100839.13;1646766;86;20981;-88
2022/08/20 11:05:35;;;;;;;15.60;10.40;;;;;;;31.46;51.56;100845.38;1656779;86;21051;-88
2022/08/20 11:08:03;;;;;;;14.95;11.20;;;;;;;31.50;51.53;100841.06;1643285;86;21000;-89
2022/08/20 11:10:33;;;;;;;15.85;11.22;;;;;;;31.56;51.51;100833.01;1656813;86;22558;-90
2022/08/20 11:13:05;;;;;;;16.55;13.25;;;;;;;31.58;51.38;100836.02;1663516;85;20995;-89
2022/08/20 11:15:36;;;;;;;18.37;12.18;;;;;;;31.61;51.08;100835.42;1634212;84;21654;-90
2022/08/20 11:18:03;;;;;;;16.77;12.10;;;;;;;31.61;51.02;100832.70;1632519;85;21626;-90
2022/08/20 11:20:30;;;;;;;13.98;10.53;;;;;;;31.71;51.08;100835.27;1632898;86;21489;-88
2022/08/20 11:23:05;;;;;;;18.55;13.38;;;;;;;31.84;51.01;100836.24;1633090;87;21176;-90
2022/08/20 11:25:33;;;;;;;15.88;12.05;;;;;;;31.94;50.97;100833.80;1632767;86;21024;-90
2022/08/20 11:27:59;;;;;;;14.10;12.10;;;;;;;32.02;50.58;100838.77;1633133;86;21025;-90
2022/08/20 11:30:29;;;;;;;19.67;13.35;;;;;;;31.98;50.38;100836.72;1654040;86;21006;-89
2022/08/20 11:32:57;;;;;;;13.50;11.63;;;;;;;31.97;50.24;100839.94;1685684;84;20996;-90
2022/08/20 11:35:24;;;;;;;13.62;11.38;;;;;;;32.07;50.09;100836.66;1659394;85;21749;-90
2022/08/20 11:37:52;;;;;;;14.70;11.05;;;;;;;32.16;49.85;100834.22;1670228;85;20968;-90